createdAt,value
2022-11-27T00:00:49.562Z,84.05
2022-11-27T00:03:17.516Z,84.02
2022-11-27T00:05:52.193Z,83.89
2022-11-27T00:08:20.174Z,84.06
2022-11-27T00:10:48.005Z,83.83
2022-11-27T00:13:15.767Z,83.77
2022-11-27T00:15:45.020Z,84.31
2022-11-27T00:18:13.181Z,84.04
2022-11-27T00:20:41.262Z,83.67
2022-11-27T00:23:09.100Z,83.84
2022-11-27T00:25:36.901Z,83.60
2022-11-27T00:28:04.810Z,83.56
2022-11-27T00:30:32.676Z,84.06
2022-11-27T00:33:01.961Z,83.81
2022-11-27T00:35:29.735Z,83.94
2022-11-27T00:37:57.536Z,84.10
2022-11-27T00:40:25.376Z,84.12
2022-11-27T00:42:53.239Z,84.43
2022-11-27T00:45:21.272Z,84.50
2022-11-27T00:47:49.124Z,84.87
2022-11-27T00:50:20.855Z,85.70
2022-11-27T00:52:49.029Z,85.68
2022-11-27T00:55:16.826Z,86.19
2022-11-27T00:57:44.610Z,86.22
2022-11-27T01:00:13.103Z,86.08
2022-11-27T01:02:40.926Z,85.27
2022-11-27T01:05:09.189Z,84.87
2022-11-27T01:07:38.358Z,84.45
2022-11-27T01:10:06.841Z,84.59
2022-11-27T01:12:34.674Z,84.13
2022-11-27T01:15:02.509Z,84.28
2022-11-27T01:17:30.579Z,84.63
2022-11-27T01:19:58.377Z,84.77
2022-11-27T01:22:26.201Z,84.73
2022-11-27T01:24:55.347Z,85.02
2022-11-27T01:27:23.265Z,85.21
2022-11-27T01:29:51.307Z,85.17
2022-11-27T01:32:19.115Z,85.26
2022-11-27T01:34:46.927Z,85.24
2022-11-27T01:37:14.789Z,85.05
2022-11-27T01:39:57.476Z,84.74
2022-11-27T01:42:26.805Z,85.02
2022-11-27T01:44:55.909Z,84.82
2022-11-27T01:47:30.521Z,85.09
2022-11-27T01:50:01.435Z,84.92
2022-11-27T01:52:33.292Z,84.65
2022-11-27T01:55:05.623Z,84.44
2022-11-27T01:57:38.727Z,83.94
2022-11-27T02:00:07.887Z,84.13
2022-11-27T02:02:35.766Z,84.25
2022-11-27T02:05:03.714Z,84.04
2022-11-27T02:07:33.534Z,84.22
2022-11-27T02:10:01.492Z,84.29
2022-11-27T02:12:34.496Z,84.45
2022-11-27T02:15:09.361Z,84.35
2022-11-27T02:17:41.932Z,84.62
2022-11-27T02:20:19.191Z,84.85
2022-11-27T02:22:57.441Z,84.75
2022-11-27T02:25:31.895Z,85.51
2022-11-27T02:28:06.019Z,86.10
2022-11-27T02:30:38.482Z,86.73
2022-11-27T02:33:09.466Z,87.14
2022-11-27T02:35:42.175Z,87.45
2022-11-27T02:38:12.016Z,87.81
2022-11-27T02:40:42.413Z,87.97
2022-11-27T02:43:12.923Z,87.55
2022-11-27T02:45:43.741Z,88.02
2022-11-27T02:48:13.676Z,88.70
2022-11-27T02:50:44.051Z,88.47
2022-11-27T02:53:13.746Z,88.73
2022-11-27T02:55:43.760Z,88.89
2022-11-27T02:58:14.002Z,89.27
2022-11-27T03:00:45.556Z,88.79
2022-11-27T03:03:15.603Z,88.80
2022-11-27T03:05:44.763Z,89.00
2022-11-27T03:08:15.401Z,88.97
2022-11-27T03:10:47.236Z,88.82
2022-11-27T03:13:15.319Z,89.18
2022-11-27T03:15:48.860Z,88.93
2022-11-27T03:18:22.215Z,88.08
2022-11-27T03:20:54.435Z,87.95
2022-11-27T03:23:22.485Z,87.07
2022-11-27T03:25:50.319Z,87.32
2022-11-27T03:28:18.395Z,86.72
2022-11-27T03:30:47.799Z,86.22
2022-11-27T03:33:15.617Z,85.50
2022-11-27T03:35:43.464Z,85.01
2022-11-27T03:38:11.284Z,84.70
2022-11-27T03:40:46.072Z,83.85
2022-11-27T03:43:15.327Z,83.70
2022-11-27T03:45:49.990Z,82.89
2022-11-27T03:48:24.394Z,82.36
2022-11-27T03:50:57.668Z,81.84
2022-11-27T03:53:28.103Z,81.07
2022-11-27T03:56:04.203Z,81.48
2022-11-27T03:58:36.921Z,80.65
2022-11-27T04:01:06.693Z,80.66
2022-11-27T04:03:36.608Z,79.83
2022-11-27T04:06:04.814Z,79.96
2022-11-27T04:08:32.878Z,79.93
2022-11-27T04:11:00.883Z,79.66
2022-11-27T04:13:28.653Z,79.58
2022-11-27T04:15:56.541Z,78.89
2022-11-27T04:18:24.396Z,78.38
2022-11-27T04:20:53.592Z,78.29
2022-11-27T04:23:21.619Z,78.54
2022-11-27T04:25:49.685Z,78.77
2022-11-27T04:28:18.074Z,78.49
2022-11-27T04:30:45.883Z,78.03
2022-11-27T04:33:13.692Z,78.40
2022-11-27T04:35:41.705Z,78.46
2022-11-27T04:38:10.864Z,78.83
2022-11-27T04:40:38.684Z,78.55
2022-11-27T04:43:06.505Z,78.22
2022-11-27T04:45:34.411Z,77.72
2022-11-27T04:48:02.444Z,78.14
2022-11-27T04:50:30.284Z,77.32
2022-11-27T04:52:58.118Z,76.93
2022-11-27T04:55:27.376Z,77.17
2022-11-27T04:57:55.174Z,76.68
2022-11-27T05:00:23.211Z,76.33
2022-11-27T05:02:51.080Z,75.51
2022-11-27T05:05:18.946Z,74.96
2022-11-27T05:07:47.010Z,74.79
2022-11-27T05:10:14.871Z,74.25
2022-11-27T05:12:44.376Z,74.32
2022-11-27T05:15:12.515Z,74.17
2022-11-27T05:17:40.408Z,74.42
2022-11-27T05:20:08.865Z,73.57
2022-11-27T05:22:36.746Z,73.03
2022-11-27T05:25:04.985Z,73.59
2022-11-27T05:27:32.798Z,72.69
2022-11-27T05:30:01.978Z,72.83
2022-11-27T05:32:29.885Z,72.40
2022-11-27T05:34:57.824Z,72.38
2022-11-27T05:37:26.011Z,72.67
2022-11-27T05:39:53.878Z,72.76
2022-11-27T05:42:21.737Z,72.67
2022-11-27T05:44:53.908Z,73.04
2022-11-27T05:47:26.134Z,72.68
2022-11-27T05:49:54.024Z,71.92
2022-11-27T05:52:22.013Z,72.54
2022-11-27T05:54:49.828Z,72.17
2022-11-27T05:57:17.602Z,71.95
2022-11-27T05:59:49.060Z,72.15
2022-11-27T06:02:21.754Z,72.73
2022-11-27T06:04:52.008Z,72.27
2022-11-27T06:07:20.152Z,72.39
2022-11-27T06:09:48.064Z,71.75
2022-11-27T06:12:15.874Z,71.99
2022-11-27T06:14:43.783Z,71.72
2022-11-27T06:17:11.910Z,72.23
2022-11-27T06:19:39.823Z,72.29
2022-11-27T06:22:09.037Z,71.54
2022-11-27T06:24:36.844Z,71.99
2022-11-27T06:27:04.794Z,71.73
2022-11-27T06:29:32.853Z,71.39
2022-11-27T06:32:00.753Z,71.97
2022-11-27T06:34:28.655Z,71.78
2022-11-27T06:36:56.456Z,71.25
2022-11-27T06:39:25.593Z,71.89
2022-11-27T06:41:53.606Z,71.44
2022-11-27T06:44:21.543Z,71.14
2022-11-27T06:46:49.364Z,71.00
2022-11-27T06:49:17.211Z,71.27
2022-11-27T06:51:45.007Z,70.95
2022-11-27T06:54:12.950Z,71.01
2022-11-27T06:56:42.208Z,71.39
2022-11-27T06:59:14.415Z,71.49
2022-11-27T07:01:42.789Z,71.22
2022-11-27T07:04:11.774Z,71.66
2022-11-27T07:06:40.120Z,71.23
2022-11-27T07:09:08.187Z,70.87
2022-11-27T07:11:36.173Z,70.72
2022-11-27T07:14:05.923Z,70.33
2022-11-27T07:16:34.729Z,70.51
2022-11-27T07:19:03.629Z,70.44
2022-11-27T07:21:31.524Z,70.56
2022-11-27T07:23:59.591Z,70.15
2022-11-27T07:26:28.920Z,69.95
2022-11-27T07:28:57.301Z,70.31
2022-11-27T07:31:28.506Z,69.63
2022-11-27T07:33:57.153Z,70.12
2022-11-27T07:36:25.854Z,70.14
2022-11-27T07:38:53.970Z,70.01
2022-11-27T07:41:21.835Z,69.28
2022-11-27T07:43:49.804Z,68.57
2022-11-27T07:46:19.282Z,69.18
2022-11-27T07:48:48.817Z,69.36
2022-11-27T07:51:18.015Z,69.17
2022-11-27T07:53:46.095Z,68.90
2022-11-27T07:56:14.625Z,69.90
2022-11-27T07:58:42.636Z,70.02
2022-11-27T08:01:11.795Z,69.58
2022-11-27T08:03:39.706Z,69.73
2022-11-27T08:06:15.982Z,69.83
2022-11-27T08:08:44.514Z,69.56
2022-11-27T08:11:19.781Z,69.36
2022-11-27T08:13:47.979Z,69.68
2022-11-27T08:16:16.129Z,69.48
2022-11-27T08:18:44.040Z,69.04
2022-11-27T08:21:11.869Z,69.12
2022-11-27T08:23:41.395Z,68.19
2022-11-27T08:26:10.698Z,67.55
2022-11-27T08:28:38.975Z,67.18
2022-11-27T08:31:07.989Z,66.75
2022-11-27T08:33:36.227Z,65.91
2022-11-27T08:36:04.309Z,65.50
2022-11-27T08:38:32.148Z,65.81
2022-11-27T08:41:05.422Z,65.68
2022-11-27T08:43:36.245Z,65.08
2022-11-27T08:46:04.954Z,64.68
2022-11-27T08:48:32.813Z,65.20
2022-11-27T08:51:00.664Z,64.63
2022-11-27T08:53:28.514Z,64.68
2022-11-27T08:55:56.484Z,64.05
2022-11-27T08:58:25.648Z,63.77
2022-11-27T09:00:53.486Z,63.80
2022-11-27T09:03:21.360Z,63.73
2022-11-27T09:05:49.233Z,64.09
2022-11-27T09:08:21.375Z,64.20
2022-11-27T09:10:49.343Z,63.25
2022-11-27T09:13:17.210Z,63.52
2022-11-27T09:15:46.337Z,62.87
2022-11-27T09:18:16.066Z,62.04
2022-11-27T09:20:43.950Z,61.75
2022-11-27T09:23:14.504Z,61.07
2022-11-27T09:25:44.898Z,60.81
2022-11-27T09:28:13.031Z,61.25
2022-11-27T09:30:40.842Z,60.88
2022-11-27T09:33:09.998Z,61.42
2022-11-27T09:35:38.216Z,62.08
2022-11-27T09:38:06.364Z,62.48
2022-11-27T09:40:35.004Z,62.13
2022-11-27T09:43:09.510Z,62.55
2022-11-27T09:45:42.608Z,62.04
2022-11-27T09:48:17.640Z,62.39
2022-11-27T09:50:51.254Z,62.16
2022-11-27T09:53:23.542Z,61.71
2022-11-27T09:56:01.595Z,60.67
2022-11-27T09:58:36.761Z,60.38
2022-11-27T10:01:11.638Z,59.73
2022-11-27T10:03:41.449Z,58.93
2022-11-27T10:06:21.080Z,58.50
2022-11-27T10:08:53.309Z,57.57
2022-11-27T10:11:28.460Z,56.80
2022-11-27T10:14:04.732Z,56.22
2022-11-27T10:16:41.375Z,55.14
2022-11-27T10:19:19.469Z,55.08
2022-11-27T10:21:50.235Z,54.67
2022-11-27T10:24:21.344Z,54.21
2022-11-27T10:26:50.027Z,54.17
2022-11-27T10:29:26.399Z,54.11
2022-11-27T10:31:57.424Z,54.79
2022-11-27T10:34:32.346Z,54.79
2022-11-27T10:37:02.023Z,54.97
2022-11-27T10:39:33.907Z,54.72
2022-11-27T10:42:10.603Z,54.41
2022-11-27T10:44:40.788Z,53.96
2022-11-27T10:47:11.228Z,54.03
2022-11-27T10:49:42.736Z,53.58
2022-11-27T10:52:14.006Z,53.87
2022-11-27T10:54:42.760Z,53.33
2022-11-27T10:57:30.021Z,53.74
2022-11-27T11:00:04.945Z,53.36
2022-11-27T11:02:34.992Z,53.51
2022-11-27T11:05:56.986Z,53.51
2022-11-27T11:08:16.909Z,53.56
2022-11-27T11:10:50.397Z,53.43
2022-11-27T11:13:20.441Z,53.79
2022-11-27T11:15:51.949Z,53.95
2022-11-27T11:18:20.844Z,54.14
2022-11-27T11:20:52.263Z,54.26
2022-11-27T11:23:22.823Z,54.13
2022-11-27T11:25:51.621Z,53.80
2022-11-27T11:28:20.852Z,53.69
2022-11-27T11:30:57.872Z,53.48
2022-11-27T11:33:27.199Z,53.49
2022-11-27T11:36:01.210Z,52.63
2022-11-27T11:38:31.967Z,52.44
2022-11-27T11:41:01.998Z,52.92
2022-11-27T11:43:30.873Z,52.57
2022-11-27T11:46:07.065Z,53.34
2022-11-27T11:48:35.304Z,53.45
2022-11-27T11:51:08.992Z,54.81
2022-11-27T11:53:39.942Z,54.38
2022-11-27T11:56:17.664Z,55.16
2022-11-27T11:58:52.418Z,54.38
2022-11-27T12:01:27.889Z,54.38
2022-11-27T12:04:03.228Z,54.97
2022-11-27T12:06:43.422Z,54.57
2022-11-27T12:09:18.119Z,55.17
2022-11-27T12:11:50.039Z,55.54
2022-11-27T12:14:25.742Z,55.84
2022-11-27T12:17:05.522Z,55.78
2022-11-27T12:19:42.711Z,56.01
2022-11-27T12:22:19.862Z,55.95
2022-11-27T12:24:52.319Z,56.47
2022-11-27T12:27:29.287Z,57.82
2022-11-27T12:30:06.224Z,57.59
2022-11-27T12:32:46.779Z,57.48
2022-11-27T12:35:27.755Z,59.00
2022-11-27T12:38:01.963Z,59.52
2022-11-27T12:40:36.485Z,59.72
2022-11-27T12:43:09.388Z,61.23
2022-11-27T12:45:39.833Z,61.34
2022-11-27T12:48:13.471Z,61.98
2022-11-27T12:50:43.405Z,60.81
2022-11-27T12:53:23.178Z,61.22
2022-11-27T12:55:57.102Z,61.23
2022-11-27T12:58:27.947Z,60.33
2022-11-27T13:01:08.943Z,59.41
2022-11-27T13:03:41.622Z,58.98
2022-11-27T13:06:12.144Z,59.22
2022-11-27T13:08:52.222Z,59.52
2022-11-27T13:11:24.892Z,58.95
2022-11-27T13:13:54.792Z,58.88
2022-11-27T13:16:26.194Z,59.22
2022-11-27T13:18:57.469Z,58.28
2022-11-27T13:21:27.859Z,58.37
2022-11-27T13:24:00.731Z,58.11
2022-11-27T13:26:31.424Z,58.63
2022-11-27T13:29:01.219Z,58.39
2022-11-27T13:31:30.466Z,58.47
2022-11-27T13:34:00.349Z,58.17
2022-11-27T13:36:34.709Z,58.42
2022-11-27T13:39:06.129Z,59.00
2022-11-27T13:41:34.769Z,59.25
2022-11-27T13:44:04.227Z,59.92
2022-11-27T13:46:44.954Z,60.61
2022-11-27T13:49:22.263Z,60.19
2022-11-27T13:51:50.222Z,60.19
2022-11-27T13:54:25.885Z,60.46
2022-11-27T13:56:56.780Z,60.06
2022-11-27T13:59:26.018Z,60.21
2022-11-27T14:01:54.512Z,60.54
2022-11-27T14:04:22.354Z,60.68
2022-11-27T14:06:53.423Z,60.99
2022-11-27T14:09:32.402Z,60.69
2022-11-27T14:12:00.423Z,60.47
2022-11-27T14:14:29.297Z,60.54
2022-11-27T14:16:58.488Z,60.54
2022-11-27T14:19:34.358Z,60.91
2022-11-27T14:22:03.227Z,61.42
2022-11-27T14:24:41.292Z,61.67
2022-11-27T14:27:17.457Z,62.38
2022-11-27T14:29:46.042Z,60.56
2022-11-27T14:32:15.277Z,60.65
2022-11-27T14:34:44.935Z,60.41
2022-11-27T14:37:23.979Z,59.10
2022-11-27T14:39:53.543Z,59.79
2022-11-27T14:42:27.892Z,58.63
2022-11-27T14:45:03.849Z,58.82
2022-11-27T14:47:33.015Z,58.58
2022-11-27T14:50:01.299Z,58.30
2022-11-27T14:52:29.243Z,58.32
2022-11-27T14:54:58.626Z,58.17
2022-11-27T14:57:28.071Z,58.40
2022-11-27T15:00:04.759Z,58.67
2022-11-27T15:02:33.248Z,59.27
2022-11-27T15:05:05.252Z,59.78
2022-11-27T15:07:41.888Z,58.84
2022-11-27T15:10:32.076Z,59.49
2022-11-27T15:13:03.389Z,59.81
2022-11-27T15:15:34.606Z,60.22
2022-11-27T15:18:06.564Z,61.35
2022-11-27T15:20:36.895Z,62.38
2022-11-27T15:23:06.500Z,63.25
2022-11-27T15:25:37.692Z,63.72
2022-11-27T15:28:25.646Z,64.74
2022-11-27T15:30:54.259Z,64.79
2022-11-27T15:33:26.197Z,64.52
2022-11-27T15:35:56.438Z,65.18
2022-11-27T15:38:28.590Z,67.24
2022-11-27T15:41:01.080Z,66.72
2022-11-27T15:43:29.051Z,65.49
2022-11-27T15:45:57.105Z,66.34
2022-11-27T15:48:26.807Z,65.45
2022-11-27T15:50:54.678Z,64.85
2022-11-27T15:53:22.524Z,64.21
2022-11-27T15:55:50.518Z,63.90
2022-11-27T15:58:19.657Z,63.19
2022-11-27T16:00:47.534Z,63.14
2022-11-27T16:03:15.604Z,63.09
2022-11-27T16:05:43.434Z,62.79
2022-11-27T16:08:11.750Z,63.22
2022-11-27T16:10:40.524Z,63.16
2022-11-27T16:13:08.381Z,63.63
2022-11-27T16:15:37.546Z,63.83
2022-11-27T16:18:07.022Z,63.72
2022-11-27T16:20:35.030Z,63.46
2022-11-27T16:23:02.836Z,63.45
2022-11-27T16:25:30.651Z,63.29
2022-11-27T16:28:02.778Z,63.10
2022-11-27T16:30:31.396Z,62.86
2022-11-27T16:33:00.612Z,62.88
2022-11-27T16:35:28.455Z,62.28
2022-11-27T16:37:56.263Z,63.60
2022-11-27T16:40:24.572Z,62.07
2022-11-27T16:42:52.561Z,62.01
2022-11-27T16:45:23.172Z,60.83
2022-11-27T16:47:50.966Z,61.29
2022-11-27T16:50:20.200Z,61.74
2022-11-27T16:52:53.978Z,61.64
2022-11-27T16:55:22.548Z,60.84
2022-11-27T16:57:50.384Z,60.99
2022-11-27T17:00:18.718Z,61.02
2022-11-27T17:02:46.607Z,61.01
2022-11-27T17:05:14.473Z,60.90
2022-11-27T17:07:43.913Z,60.70
2022-11-27T17:10:11.866Z,60.89
2022-11-27T17:12:39.739Z,60.89
2022-11-27T17:15:07.994Z,60.73
2022-11-27T17:17:40.158Z,60.69
2022-11-27T17:20:09.588Z,60.56
2022-11-27T17:22:37.499Z,59.74
2022-11-27T17:25:10.927Z,59.85
2022-11-27T17:27:38.940Z,59.77
2022-11-27T17:30:07.419Z,59.74
2022-11-27T17:32:35.229Z,59.91
2022-11-27T17:35:03.055Z,60.10
2022-11-27T17:37:30.923Z,60.18
2022-11-27T17:39:59.024Z,60.13
2022-11-27T17:42:28.392Z,59.99
2022-11-27T17:44:56.369Z,60.15
2022-11-27T17:47:24.240Z,60.31
2022-11-27T17:49:52.068Z,60.23
2022-11-27T17:52:20.081Z,60.12
2022-11-27T17:54:47.921Z,60.50
2022-11-27T17:57:15.757Z,59.54
2022-11-27T17:59:45.024Z,60.33
2022-11-27T18:02:12.902Z,60.80
2022-11-27T18:04:40.952Z,60.76
2022-11-27T18:07:08.790Z,61.53
2022-11-27T18:09:36.740Z,60.96
2022-11-27T18:12:06.280Z,62.65
2022-11-27T18:14:38.092Z,63.01
2022-11-27T18:17:10.603Z,62.92
2022-11-27T18:19:42.885Z,63.29
2022-11-27T18:22:13.167Z,62.97
2022-11-27T18:24:44.769Z,63.68
2022-11-27T18:27:21.185Z,62.70
2022-11-27T18:29:50.112Z,62.01
2022-11-27T18:32:20.015Z,62.77
2022-11-27T18:34:48.301Z,61.15
2022-11-27T18:37:16.306Z,60.77
2022-11-27T18:39:45.324Z,60.32
2022-11-27T18:42:14.264Z,61.34
2022-11-27T18:44:44.986Z,61.21
2022-11-27T18:47:13.580Z,61.00
2022-11-27T18:49:43.290Z,61.40
2022-11-27T18:52:14.231Z,61.77
2022-11-27T18:54:42.724Z,61.40
2022-11-27T18:57:11.084Z,61.73
2022-11-27T18:59:39.434Z,61.97
2022-11-27T19:02:07.956Z,61.72
2022-11-27T19:04:36.382Z,62.27
2022-11-27T19:07:05.767Z,62.44
2022-11-27T19:09:33.733Z,61.88
2022-11-27T19:12:01.568Z,61.75
2022-11-27T19:14:29.481Z,61.71
2022-11-27T19:16:58.404Z,61.58
2022-11-27T19:19:53.459Z,60.96
2022-11-27T19:22:17.026Z,61.42
2022-11-27T19:24:45.044Z,61.78
2022-11-27T19:27:13.096Z,62.34
2022-11-27T19:29:41.749Z,62.84
2022-11-27T19:32:11.746Z,62.57
2022-11-27T19:34:43.045Z,63.90
2022-11-27T19:37:11.231Z,64.43
2022-11-27T19:39:44.198Z,63.14
2022-11-27T19:42:12.294Z,63.52
2022-11-27T19:44:40.712Z,64.88
2022-11-27T19:47:09.624Z,65.94
2022-11-27T19:49:37.707Z,64.48
2022-11-27T19:52:05.881Z,63.72
2022-11-27T19:54:33.958Z,62.57
2022-11-27T19:57:04.328Z,62.84
2022-11-27T19:59:32.356Z,61.82
2022-11-27T20:02:00.404Z,62.07
2022-11-27T20:04:28.409Z,61.45
2022-11-27T20:06:56.279Z,62.20
2022-11-27T20:09:24.498Z,62.02
2022-11-27T20:11:52.833Z,61.61
2022-11-27T20:14:22.453Z,61.68
2022-11-27T20:16:50.437Z,62.40
2022-11-27T20:19:19.080Z,62.74
2022-11-27T20:21:46.940Z,62.74
2022-11-27T20:24:15.124Z,64.45
2022-11-27T20:26:43.362Z,63.50
2022-11-27T20:29:11.955Z,62.88
2022-11-27T20:31:43.731Z,62.92
2022-11-27T20:34:15.812Z,62.48
2022-11-27T20:36:43.822Z,61.50
2022-11-27T20:39:16.337Z,62.09
2022-11-27T20:41:47.634Z,62.58
2022-11-27T20:44:16.556Z,62.43
2022-11-27T20:46:46.113Z,62.17
2022-11-27T20:49:13.936Z,61.93
2022-11-27T20:51:42.468Z,61.09
2022-11-27T20:54:11.850Z,60.17
2022-11-27T20:56:40.877Z,61.31
2022-11-27T20:59:08.833Z,61.17
2022-11-27T21:01:37.343Z,62.24
2022-11-27T21:04:17.100Z,61.16
2022-11-27T21:06:45.850Z,61.48
2022-11-27T21:09:14.603Z,61.10
2022-11-27T21:11:42.890Z,61.56
2022-11-27T21:14:12.340Z,61.57
2022-11-27T21:16:41.795Z,61.86
2022-11-27T21:19:16.945Z,61.17
2022-11-27T21:21:44.912Z,61.41
2022-11-27T21:24:13.725Z,61.14
2022-11-27T21:26:41.781Z,61.68
2022-11-27T21:29:09.947Z,61.82
2022-11-27T21:31:39.371Z,61.22
2022-11-27T21:34:11.375Z,62.02
2022-11-27T21:36:40.597Z,62.31
2022-11-27T21:39:09.348Z,61.89
2022-11-27T21:41:37.416Z,61.85
2022-11-27T21:44:05.677Z,61.82
2022-11-27T21:46:36.176Z,61.29
2022-11-27T21:49:05.890Z,61.31
2022-11-27T21:51:33.700Z,61.32
2022-11-27T21:54:02.852Z,61.37
2022-11-27T21:56:34.557Z,61.15
2022-11-27T21:59:03.053Z,61.22
2022-11-27T22:01:31.041Z,61.25
2022-11-27T22:03:58.981Z,62.33
2022-11-27T22:06:28.494Z,61.93
2022-11-27T22:09:03.134Z,62.52
2022-11-27T22:11:34.316Z,61.52
2022-11-27T22:14:07.376Z,61.85
2022-11-27T22:16:40.028Z,61.70
2022-11-27T22:19:14.040Z,61.71
2022-11-27T22:21:42.061Z,61.71
2022-11-27T22:24:15.135Z,61.86
2022-11-27T22:26:48.210Z,62.37
2022-11-27T22:29:19.610Z,62.85
2022-11-27T22:31:47.572Z,63.64
2022-11-27T22:34:18.967Z,64.62
2022-11-27T22:36:47.007Z,66.09
2022-11-27T22:39:14.793Z,67.06
2022-11-27T22:41:43.004Z,67.82
2022-11-27T22:44:14.037Z,68.13
2022-11-27T22:46:42.309Z,67.67
2022-11-27T22:49:11.197Z,68.12
2022-11-27T22:51:39.573Z,67.42
2022-11-27T22:54:07.989Z,68.16
2022-11-27T22:56:36.245Z,68.02
2022-11-27T22:59:31.828Z,67.89
2022-11-27T23:01:54.762Z,68.77
2022-11-27T23:04:22.788Z,69.60
2022-11-27T23:06:50.621Z,71.11
2022-11-27T23:09:18.851Z,72.38
2022-11-27T23:11:47.096Z,72.46
2022-11-27T23:14:14.927Z,73.54
2022-11-27T23:16:43.260Z,74.36
2022-11-27T23:19:13.030Z,75.38
2022-11-27T23:21:40.976Z,75.66
2022-11-27T23:24:13.560Z,76.53
2022-11-27T23:26:41.812Z,78.30
2022-11-27T23:29:10.290Z,79.67
2022-11-27T23:31:39.016Z,80.93
2022-11-27T23:34:08.282Z,82.27
2022-11-27T23:36:38.484Z,82.89
2022-11-27T23:39:07.775Z,83.54
2022-11-27T23:41:35.590Z,84.24
2022-11-27T23:44:04.698Z,85.31
2022-11-27T23:46:32.576Z,85.56
2022-11-27T23:49:01.018Z,86.60
2022-11-27T23:51:30.049Z,86.49
2022-11-27T23:53:59.509Z,86.85
2022-11-27T23:56:28.199Z,86.96
2022-11-27T23:58:56.586Z,87.30
